sensor_id;sensor_type;location;lat;lon;timestamp;pressure;altitude;pressure_sealevel;temperature;humidity
46045;BME280;31781;54.094;13.428;2023-08-06T00:00:14;101021.97;;;17.12;63.54
46045;BME280;31781;54.094;13.428;2023-08-06T00:02:38;101020.31;;;17.11;62.72
46045;BME280;31781;54.094;13.428;2023-08-06T00:04:59;101021.13;;;17.11;63.46
46045;BME280;31781;54.094;13.428;2023-08-06T00:07:04;101016.94;;;17.09;63.55
46045;BME280;31781;54.094;13.428;2023-08-06T00:09:06;101026.28;;;17.08;63.83
46045;BME280;31781;54.094;13.428;2023-08-06T00:11:24;101023.28;;;17.09;64.40
46045;BME280;31781;54.094;13.428;2023-08-06T00:13:39;101020.78;;;17.08;64.62
46045;BME280;31781;54.094;13.428;2023-08-06T00:15:55;101020.19;;;17.06;64.92
46045;BME280;31781;54.094;13.428;2023-08-06T00:29:13;101020.69;;;17.02;63.93
46045;BME280;31781;54.094;13.428;2023-08-06T00:31:30;101016.50;;;17.00;63.77
46045;BME280;31781;54.094;13.428;2023-08-06T00:33:48;101013.75;;;17.00;64.42
46045;BME280;31781;54.094;13.428;2023-08-06T00:36:09;101004.94;;;16.98;64.63
46045;BME280;31781;54.094;13.428;2023-08-06T00:38:29;101002.41;;;16.96;64.34
46045;BME280;31781;54.094;13.428;2023-08-06T00:40:31;100996.09;;;16.96;64.57
46045;BME280;31781;54.094;13.428;2023-08-06T00:42:46;100993.59;;;16.94;64.46
46045;BME280;31781;54.094;13.428;2023-08-06T00:47:57;100989.78;;;16.95;63.26
46045;BME280;31781;54.094;13.428;2023-08-06T00:50:13;100994.09;;;16.91;64.62
46045;BME280;31781;54.094;13.428;2023-08-06T00:52:38;100990.50;;;16.91;64.50
46045;BME280;31781;54.094;13.428;2023-08-06T00:54:58;100996.00;;;16.91;63.57
46045;BME280;31781;54.094;13.428;2023-08-06T00:57:16;100995.66;;;16.87;65.38
46045;BME280;31781;54.094;13.428;2023-08-06T00:59:35;100993.41;;;16.84;65.62
46045;BME280;31781;54.094;13.428;2023-08-06T01:01:51;100996.38;;;16.83;65.79
46045;BME280;31781;54.094;13.428;2023-08-06T01:18:01;100985.38;;;16.83;64.26
46045;BME280;31781;54.094;13.428;2023-08-06T01:20:21;100979.53;;;16.79;65.65
46045;BME280;31781;54.094;13.428;2023-08-06T01:25:38;100976.31;;;16.82;64.70
46045;BME280;31781;54.094;13.428;2023-08-06T01:27:58;100974.53;;;16.76;65.92
46045;BME280;31781;54.094;13.428;2023-08-06T01:30:22;100971.53;;;16.78;65.40
46045;BME280;31781;54.094;13.428;2023-08-06T01:32:43;100971.78;;;16.76;66.05
46045;BME280;31781;54.094;13.428;2023-08-06T01:35:02;100966.28;;;16.76;65.79
46045;BME280;31781;54.094;13.428;2023-08-06T01:37:29;100965.69;;;16.74;65.78
46045;BME280;31781;54.094;13.428;2023-08-06T01:39:45;100978.34;;;16.75;66.28
46045;BME280;31781;54.094;13.428;2023-08-06T01:44:35;100967.03;;;16.72;67.52
46045;BME280;31781;54.094;13.428;2023-08-06T01:46:37;100967.84;;;16.72;66.98
46045;BME280;31781;54.094;13.428;2023-08-06T01:48:40;100968.94;;;16.71;67.68
46045;BME280;31781;54.094;13.428;2023-08-06T01:50:43;100961.78;;;16.70;67.04
46045;BME280;31781;54.094;13.428;2023-08-06T01:52:45;100960.69;;;16.71;66.77
46045;BME280;31781;54.094;13.428;2023-08-06T01:54:48;100962.38;;;16.72;67.15
46045;BME280;31781;54.094;13.428;2023-08-06T01:56:52;100956.88;;;16.72;67.45
46045;BME280;31781;54.094;13.428;2023-08-06T01:58:56;100967.84;;;16.72;67.32
46045;BME280;31781;54.094;13.428;2023-08-06T02:12:21;100959.63;;;16.72;66.26
46045;BME280;31781;54.094;13.428;2023-08-06T02:14:37;100952.72;;;16.70;67.64
46045;BME280;31781;54.094;13.428;2023-08-06T02:16:40;100953.78;;;16.69;68.31
46045;BME280;31781;54.094;13.428;2023-08-06T02:18:50;100955.91;;;16.67;68.73
46045;BME280;31781;54.094;13.428;2023-08-06T02:21:12;100952.38;;;16.66;68.17
46045;BME280;31781;54.094;13.428;2023-08-06T02:23:46;100956.19;;;16.65;66.96
46045;BME280;31781;54.094;13.428;2023-08-06T02:26:05;100950.34;;;16.62;67.02
46045;BME280;31781;54.094;13.428;2023-08-06T02:28:44;100950.34;;;16.62;67.16
46045;BME280;31781;54.094;13.428;2023-08-06T02:31:01;100945.75;;;16.55;69.08
46045;BME280;31781;54.094;13.428;2023-08-06T02:33:03;100933.13;;;16.54;69.16
46045;BME280;31781;54.094;13.428;2023-08-06T02:35:08;100937.78;;;16.54;69.08
46045;BME280;31781;54.094;13.428;2023-08-06T02:37:38;100927.88;;;16.53;67.45
46045;BME280;31781;54.094;13.428;2023-08-06T02:39:56;100923.72;;;16.50;69.42
46045;BME280;31781;54.094;13.428;2023-08-06T02:42:15;100919.53;;;16.48;69.04
46045;BME280;31781;54.094;13.428;2023-08-06T02:44:35;100910.19;;;16.49;67.70
46045;BME280;31781;54.094;13.428;2023-08-06T02:47:11;100904.72;;;16.49;68.24
46045;BME280;31781;54.094;13.428;2023-08-06T02:49:28;100897.56;;;16.48;69.24
46045;BME280;31781;54.094;13.428;2023-08-06T02:51:32;100902.22;;;16.47;69.14
46045;BME280;31781;54.094;13.428;2023-08-06T02:53:35;100894.00;;;16.47;69.62
46045;BME280;31781;54.094;13.428;2023-08-06T02:55:45;100881.09;;;16.48;68.62
46045;BME280;31781;54.094;13.428;2023-08-06T02:57:49;100877.50;;;16.47;69.41
46045;BME280;31781;54.094;13.428;2023-08-06T03:00:27;100867.94;;;16.50;68.15
46045;BME280;31781;54.094;13.428;2023-08-06T03:03:01;100872.84;;;16.48;69.47
46045;BME280;31781;54.094;13.428;2023-08-06T03:05:10;100869.28;;;16.47;69.35
46045;BME280;31781;54.094;13.428;2023-08-06T03:07:14;100858.28;;;16.47;69.54
46045;BME280;31781;54.094;13.428;2023-08-06T03:09:17;100858.28;;;16.47;69.94
46045;BME280;31781;54.094;13.428;2023-08-06T03:11:19;100857.19;;;16.48;70.10
46045;BME280;31781;54.094;13.428;2023-08-06T03:13:33;100850.63;;;16.49;69.75
46045;BME280;31781;54.094;13.428;2023-08-06T03:29:36;100821.72;;;16.59;68.25
46045;BME280;31781;54.094;13.428;2023-08-06T03:31:54;100827.44;;;16.57;69.97
46045;BME280;31781;54.094;13.428;2023-08-06T03:34:10;100815.63;;;16.57;70.16
46045;BME280;31781;54.094;13.428;2023-08-06T03:36:19;100802.94;;;16.55;70.19
46045;BME280;31781;54.094;13.428;2023-08-06T03:38:39;100805.47;;;16.57;69.71
46045;BME280;31781;54.094;13.428;2023-08-06T03:43:45;100815.72;;;16.62;68.49
46045;BME280;31781;54.094;13.428;2023-08-06T03:45:58;100805.81;;;16.61;68.91
46045;BME280;31781;54.094;13.428;2023-08-06T03:48:15;100798.91;;;16.58;69.74
46045;BME280;31781;54.094;13.428;2023-08-06T03:50:58;100800.91;;;16.63;68.01
46045;BME280;31781;54.094;13.428;2023-08-06T03:53:14;100797.56;;;16.61;70.12
46045;BME280;31781;54.094;13.428;2023-08-06T03:55:20;100796.72;;;16.60;70.04
46045;BME280;31781;54.094;13.428;2023-08-06T03:57:35;100789.94;;;16.63;69.14
46045;BME280;31781;54.094;13.428;2023-08-06T03:59:51;100789.09;;;16.62;70.38
46045;BME280;31781;54.094;13.428;2023-08-06T04:02:24;100788.81;;;16.64;68.78
46045;BME280;31781;54.094;13.428;2023-08-06T04:05:17;100790.75;;;16.63;70.44
46045;BME280;31781;54.094;13.428;2023-08-06T04:07:39;100786.69;;;16.66;68.99
46045;BME280;31781;54.094;13.428;2023-08-06T04:10:12;100786.09;;;16.64;70.48
46045;BME280;31781;54.094;13.428;2023-08-06T04:12:27;100788.59;;;16.65;70.27
46045;BME280;31781;54.094;13.428;2023-08-06T04:14:43;100782.25;;;16.65;70.59
46045;BME280;31781;54.094;13.428;2023-08-06T04:17:04;100782.03;;;16.66;70.26
46045;BME280;31781;54.094;13.428;2023-08-06T04:23:05;100778.78;;;16.69;70.60
46045;BME280;31781;54.094;13.428;2023-08-06T04:25:26;100769.47;;;16.70;68.82
46045;BME280;31781;54.094;13.428;2023-08-06T04:27:37;100771.09;;;16.71;70.05
46045;BME280;31781;54.094;13.428;2023-08-06T04:29:56;100766.44;;;16.72;71.20
46045;BME280;31781;54.094;13.428;2023-08-06T04:32:14;100770.03;;;16.72;71.09
46045;BME280;31781;54.094;13.428;2023-08-06T04:34:20;100765.38;;;16.73;70.95
46045;BME280;31781;54.094;13.428;2023-08-06T04:36:56;100763.81;;;16.77;69.50
46045;BME280;31781;54.094;13.428;2023-08-06T04:41:50;100768.69;;;16.75;71.48
46045;BME280;31781;54.094;13.428;2023-08-06T04:44:07;100760.44;;;16.75;71.76
46045;BME280;31781;54.094;13.428;2023-08-06T04:46:25;100752.47;;;16.73;71.79
46045;BME280;31781;54.094;13.428;2023-08-06T04:51:18;100750.91;;;16.77;71.44
46045;BME280;31781;54.094;13.428;2023-08-06T04:53:37;100746.47;;;16.76;71.67
46045;BME280;31781;54.094;13.428;2023-08-06T04:55:53;100741.22;;;16.75;71.43
46045;BME280;31781;54.094;13.428;2023-08-06T05:28:34;100715.47;;;16.97;69.95
46045;BME280;31781;54.094;13.428;2023-08-06T05:30:50;100719.06;;;16.98;70.77
46045;BME280;31781;54.094;13.428;2023-08-06T05:33:06;100713.31;;;16.99;71.24
46045;BME280;31781;54.094;13.428;2023-08-06T05:35:18;100705.41;;;17.03;70.78
46045;BME280;31781;54.094;13.428;2023-08-06T05:37:31;100704.06;;;17.06;70.42
46045;BME280;31781;54.094;13.428;2023-08-06T05:39:55;100693.16;;;17.11;69.96
46045;BME280;31781;54.094;13.428;2023-08-06T05:42:18;100697.03;;;17.15;70.11
46045;BME280;31781;54.094;13.428;2023-08-06T06:01:19;100673.47;;;17.40;71.83
46045;BME280;31781;54.094;13.428;2023-08-06T06:03:42;100680.94;;;17.45;73.63
46045;BME280;31781;54.094;13.428;2023-08-06T06:06:12;100677.44;;;17.49;74.07
46045;BME280;31781;54.094;13.428;2023-08-06T06:08:39;100668.41;;;17.54;73.61
46045;BME280;31781;54.094;13.428;2023-08-06T06:10:52;100665.19;;;17.57;75.95
46045;BME280;31781;54.094;13.428;2023-08-06T06:13:20;100658.38;;;17.65;74.04
46045;BME280;31781;54.094;13.428;2023-08-06T06:16:02;100668.34;;;17.71;74.23
46045;BME280;31781;54.094;13.428;2023-08-06T06:18:23;100664.28;;;17.73;76.20
46045;BME280;31781;54.094;13.428;2023-08-06T06:20:44;100662.69;;;17.77;75.48
46045;BME280;31781;54.094;13.428;2023-08-06T06:23:01;100658.28;;;17.81;75.99
46045;BME280;31781;54.094;13.428;2023-08-06T06:25:18;100661.34;;;17.85;76.29
46045;BME280;31781;54.094;13.428;2023-08-06T06:27:42;100659.50;;;17.90;74.51
46045;BME280;31781;54.094;13.428;2023-08-06T06:30:06;100658.97;;;17.93;74.73
46045;BME280;31781;54.094;13.428;2023-08-06T06:32:28;100662.03;;;17.97;74.81
46045;BME280;31781;54.094;13.428;2023-08-06T06:37:36;100654.69;;;18.03;74.36
46045;BME280;31781;54.094;13.428;2023-08-06T06:39:59;100653.31;;;18.05;74.94
46045;BME280;31781;54.094;13.428;2023-08-06T06:42:15;100653.31;;;18.05;76.38
46045;BME280;31781;54.094;13.428;2023-08-06T06:44:18;100645.63;;;18.07;76.17
46045;BME280;31781;54.094;13.428;2023-08-06T06:46:23;100648.13;;;18.09;76.45
46045;BME280;31781;54.094;13.428;2023-08-06T06:48:25;100651.72;;;18.09;76.31
46045;BME280;31781;54.094;13.428;2023-08-06T06:53:25;100653.09;;;18.12;73.99
46045;BME280;31781;54.094;13.428;2023-08-06T06:58:48;100638.56;;;18.16;74.59
46045;BME280;31781;54.094;13.428;2023-08-06T07:00:59;100653.41;;;18.15;75.96
46045;BME280;31781;54.094;13.428;2023-08-06T07:03:04;100642.16;;;18.17;75.77
46045;BME280;31781;54.094;13.428;2023-08-06T07:05:38;100644.63;;;18.18;76.44
46045;BME280;31781;54.094;13.428;2023-08-06T07:07:31;100644.38;;;18.20;76.53
46045;BME280;31781;54.094;13.428;2023-08-06T07:09:36;100654.03;;;18.22;76.08
46045;BME280;31781;54.094;13.428;2023-08-06T07:11:55;100650.19;;;18.23;75.77
46045;BME280;31781;54.094;13.428;2023-08-06T07:16:44;100650.78;;;18.25;75.44
46045;BME280;31781;54.094;13.428;2023-08-06T07:18:53;100641.38;;;18.26;74.93
46045;BME280;31781;54.094;13.428;2023-08-06T07:21:13;100644.16;;;18.26;75.95
46045;BME280;31781;54.094;13.428;2023-08-06T07:23:33;100649.97;;;18.30;76.12
46045;BME280;31781;54.094;13.428;2023-08-06T07:25:40;100643.63;;;18.29;76.93
46045;BME280;31781;54.094;13.428;2023-08-06T07:27:57;100642.53;;;18.30;77.12
46045;BME280;31781;54.094;13.428;2023-08-06T07:30:12;100641.44;;;18.31;77.32
46045;BME280;31781;54.094;13.428;2023-08-06T07:54:27;100635.78;;;18.48;75.60
46045;BME280;31781;54.094;13.428;2023-08-06T07:56:56;100639.66;;;18.47;77.38
46045;BME280;31781;54.094;13.428;2023-08-06T07:59:17;100634.97;;;18.47;76.91
46045;BME280;31781;54.094;13.428;2023-08-06T08:01:42;100637.44;;;18.49;75.62
46045;BME280;31781;54.094;13.428;2023-08-06T08:03:58;100634.69;;;18.49;77.72
46045;BME280;31781;54.094;13.428;2023-08-06T08:06:17;100639.97;;;18.51;76.46
46045;BME280;31781;54.094;13.428;2023-08-06T08:08:33;100628.34;;;18.48;77.43
46045;BME280;31781;54.094;13.428;2023-08-06T08:16:26;100635.03;;;18.53;75.31
46045;BME280;31781;54.094;13.428;2023-08-06T08:18:49;100636.69;;;18.54;76.06
46045;BME280;31781;54.094;13.428;2023-08-06T08:20:57;100629.81;;;18.51;77.69
46045;BME280;31781;54.094;13.428;2023-08-06T08:23:19;100623.19;;;18.52;76.21
46045;BME280;31781;54.094;13.428;2023-08-06T08:25:37;100629.53;;;18.53;76.93
46045;BME280;31781;54.094;13.428;2023-08-06T08:27:55;100624.59;;;18.55;77.58
46045;BME280;31781;54.094;13.428;2023-08-06T08:30:12;100621.00;;;18.54;76.98
46045;BME280;31781;54.094;13.428;2023-08-06T08:38:04;100623.22;;;18.57;76.10
46045;BME280;31781;54.094;13.428;2023-08-06T08:40:24;100616.88;;;18.57;76.50
46045;BME280;31781;54.094;13.428;2023-08-06T08:42:43;100620.47;;;18.57;77.57
46045;BME280;31781;54.094;13.428;2023-08-06T08:45:03;100620.22;;;18.59;77.22
46045;BME280;31781;54.094;13.428;2023-08-06T08:47:08;100616.34;;;18.60;77.33
46045;BME280;31781;54.094;13.428;2023-08-06T08:49:39;100621.59;;;18.61;76.18
46045;BME280;31781;54.094;13.428;2023-08-06T08:52:34;100612.53;;;18.66;74.43
46045;BME280;31781;54.094;13.428;2023-08-06T09:06:19;100595.50;;;18.74;75.70
46045;BME280;31781;54.094;13.428;2023-08-06T09:08:51;100595.78;;;18.72;76.53
46045;BME280;31781;54.094;13.428;2023-08-06T09:11:23;100593.00;;;18.72;77.25
46045;BME280;31781;54.094;13.428;2023-08-06T09:13:49;100587.22;;;18.74;76.82
46045;BME280;31781;54.094;13.428;2023-08-06T09:16:09;100589.16;;;18.73;77.59
46045;BME280;31781;54.094;13.428;2023-08-06T09:18:31;100586.41;;;18.73;76.66
46045;BME280;31781;54.094;13.428;2023-08-06T09:20:35;100583.06;;;18.71;76.84
46045;BME280;31781;54.094;13.428;2023-08-06T09:23:09;100580.38;;;18.76;74.92
46045;BME280;31781;54.094;13.428;2023-08-06T09:25:45;100580.38;;;18.76;75.00
46045;BME280;31781;54.094;13.428;2023-08-06T09:28:00;100583.91;;;18.72;76.90
46045;BME280;31781;54.094;13.428;2023-08-06T09:31:31;100582.00;;;18.72;74.53
46045;BME280;31781;54.094;13.428;2023-08-06T09:33:35;100579.78;;;18.69;74.38
46045;BME280;31781;54.094;13.428;2023-08-06T09:35:56;100580.84;;;18.68;75.75
46045;BME280;31781;54.094;13.428;2023-08-06T09:49:19;100564.56;;;18.62;74.53
46045;BME280;31781;54.094;13.428;2023-08-06T09:51:37;100565.66;;;18.61;75.52
46045;BME280;31781;54.094;13.428;2023-08-06T09:54:03;100555.47;;;18.61;75.19
46045;BME280;31781;54.094;13.428;2023-08-06T09:56:25;100563.44;;;18.63;75.82
46045;BME280;31781;54.094;13.428;2023-08-06T09:58:32;100556.00;;;18.63;76.29
46045;BME280;31781;54.094;13.428;2023-08-06T10:01:03;100553.56;;;18.67;74.59
46045;BME280;31781;54.094;13.428;2023-08-06T10:03:24;100556.06;;;18.68;75.96
46045;BME280;31781;54.094;13.428;2023-08-06T10:05:42;100551.09;;;18.70;77.42
46045;BME280;31781;54.094;13.428;2023-08-06T10:08:02;100550.00;;;18.71;77.33
46045;BME280;31781;54.094;13.428;2023-08-06T10:10:46;100539.00;;;18.76;76.57
46045;BME280;31781;54.094;13.428;2023-08-06T10:13:31;100536.56;;;18.80;77.93
46045;BME280;31781;54.094;13.428;2023-08-06T10:15:46;100528.56;;;18.83;77.08
46045;BME280;31781;54.094;13.428;2023-08-06T10:18:16;100530.00;;;18.91;75.34
46045;BME280;31781;54.094;13.428;2023-08-06T10:37:48;100507.69;;;19.08;75.13
46045;BME280;31781;54.094;13.428;2023-08-06T10:39:50;100507.69;;;19.08;75.87
46045;BME280;31781;54.094;13.428;2023-08-06T10:42:00;100505.78;;;19.08;76.03
46045;BME280;31781;54.094;13.428;2023-08-06T10:44:22;100508.28;;;19.10;75.74
46045;BME280;31781;54.094;13.428;2023-08-06T10:46:40;100507.16;;;19.11;76.02
46045;BME280;31781;54.094;13.428;2023-08-06T10:48:45;100497.78;;;19.12;76.42
46045;BME280;31781;54.094;13.428;2023-08-06T10:51:09;100503.88;;;19.14;76.83
46045;BME280;31781;54.094;13.428;2023-08-06T10:53:41;100501.13;;;19.19;75.17
46045;BME280;31781;54.094;13.428;2023-08-06T10:56:31;100501.41;;;19.22;73.88
46045;BME280;31781;54.094;13.428;2023-08-06T10:58:57;100504.16;;;19.22;75.12
46045;BME280;31781;54.094;13.428;2023-08-06T11:01:00;100501.69;;;19.21;75.76
46045;BME280;31781;54.094;13.428;2023-08-06T11:03:03;100497.28;;;19.20;76.41
46045;BME280;31781;54.094;13.428;2023-08-06T11:05:07;100503.63;;;19.20;75.82
46045;BME280;31781;54.094;13.428;2023-08-06T11:07:43;100499.47;;;19.23;75.25
46045;BME280;31781;54.094;13.428;2023-08-06T11:10:01;100501.97;;;19.24;75.79
46045;BME280;31781;54.094;13.428;2023-08-06T11:12:24;100497.00;;;19.26;75.14
46045;BME280;31781;54.094;13.428;2023-08-06T11:14:42;100503.34;;;19.27;76.08
46045;BME280;31781;54.094;13.428;2023-08-06T11:17:01;100501.16;;;19.29;75.68
46045;BME280;31781;54.094;13.428;2023-08-06T11:19:45;100494.81;;;19.33;74.18
46045;BME280;31781;54.094;13.428;2023-08-06T11:34:07;100492.91;;;19.39;74.48
46045;BME280;31781;54.094;13.428;2023-08-06T11:39:23;100484.06;;;19.37;75.23
46045;BME280;31781;54.094;13.428;2023-08-06T11:44:01;100486.56;;;19.38;73.52
46045;BME280;31781;54.094;13.428;2023-08-06T11:46:18;100481.59;;;19.35;73.71
46045;BME280;31781;54.094;13.428;2023-08-06T11:48:32;100467.78;;;19.35;73.56
46045;BME280;31781;54.094;13.428;2023-08-06T11:56:40;100460.03;;;19.17;73.12
46045;BME280;31781;54.094;13.428;2023-08-06T11:59:55;100457.53;;;19.16;72.27
46045;BME280;31781;54.094;13.428;2023-08-06T12:02:16;100454.75;;;19.11;72.04
46045;BME280;31781;54.094;13.428;2023-08-06T12:05:32;100448.97;;;19.07;72.83
46045;BME280;31781;54.094;13.428;2023-08-06T12:30:17;100404.28;;;19.00;74.32
46045;BME280;31781;54.094;13.428;2023-08-06T12:32:55;100402.94;;;19.03;73.73
46045;BME280;31781;54.094;13.428;2023-08-06T12:35:18;100401.25;;;19.02;74.50
46045;BME280;31781;54.094;13.428;2023-08-06T12:37:33;100405.09;;;19.01;75.14
46045;BME280;31781;54.094;13.428;2023-08-06T12:40:13;100395.44;;;19.03;73.46
46045;BME280;31781;54.094;13.428;2023-08-06T12:42:32;100402.09;;;19.02;73.34
46045;BME280;31781;54.094;13.428;2023-08-06T12:44:51;100403.72;;;19.03;74.58
46045;BME280;31781;54.094;13.428;2023-08-06T12:50:15;100388.28;;;19.07;73.53
46045;BME280;31781;54.094;13.428;2023-08-06T12:52:34;100386.91;;;19.05;73.76
46045;BME280;31781;54.094;13.428;2023-08-06T12:55:07;100389.13;;;19.08;72.62
46045;BME280;31781;54.094;13.428;2023-08-06T12:57:26;100388.84;;;19.04;73.83
46045;BME280;31781;54.094;13.428;2023-08-06T12:59:43;100386.09;;;19.04;73.58
46045;BME280;31781;54.094;13.428;2023-08-06T13:02:09;100387.75;;;19.05;73.78
46045;BME280;31781;54.094;13.428;2023-08-06T13:04:27;100380.03;;;19.07;73.89
46045;BME280;31781;54.094;13.428;2023-08-06T13:14:49;100365.69;;;19.05;73.71
46045;BME280;31781;54.094;13.428;2023-08-06T13:17:04;100370.09;;;19.01;73.72
46045;BME280;31781;54.094;13.428;2023-08-06T13:19:20;100368.44;;;19.00;73.63
46045;BME280;31781;54.094;13.428;2023-08-06T13:21:58;100369.25;;;19.01;72.38
46045;BME280;31781;54.094;13.428;2023-08-06T13:24:14;100364.31;;;18.98;74.46
46045;BME280;31781;54.094;13.428;2023-08-06T13:26:22;100367.63;;;18.94;73.16
46045;BME280;31781;54.094;13.428;2023-08-06T13:29:32;100364.56;;;18.91;73.32
46045;BME280;31781;54.094;13.428;2023-08-06T13:36:41;100360.97;;;18.85;72.98
46045;BME280;31781;54.094;13.428;2023-08-06T13:39:19;100361.25;;;18.84;72.27
46045;BME280;31781;54.094;13.428;2023-08-06T13:41:42;100376.69;;;18.80;72.14
46045;BME280;31781;54.094;13.428;2023-08-06T13:43:45;100371.97;;;18.75;71.67
46045;BME280;31781;54.094;13.428;2023-08-06T13:45:51;100376.38;;;18.71;71.55
46045;BME280;31781;54.094;13.428;2023-08-06T13:48:14;100384.34;;;18.68;71.14
46045;BME280;31781;54.094;13.428;2023-08-06T13:50:17;100381.56;;;18.63;71.98
46045;BME280;31781;54.094;13.428;2023-08-06T13:55:25;100384.59;;;18.56;71.29
46045;BME280;31781;54.094;13.428;2023-08-06T13:57:48;100388.41;;;18.50;71.52
46045;BME280;31781;54.094;13.428;2023-08-06T14:00:06;100383.44;;;18.47;71.84
46045;BME280;31781;54.094;13.428;2023-08-06T14:02:10;100387.81;;;18.43;71.75
46045;BME280;31781;54.094;13.428;2023-08-06T14:04:13;100383.94;;;18.39;71.75
46045;BME280;31781;54.094;13.428;2023-08-06T14:06:15;100388.09;;;18.36;72.15
46045;BME280;31781;54.094;13.428;2023-08-06T14:09:10;100380.34;;;18.33;71.95
46045;BME280;31781;54.094;13.428;2023-08-06T14:11:28;100374.28;;;18.31;71.43
46045;BME280;31781;54.094;13.428;2023-08-06T14:14:35;100370.41;;;18.27;70.90
46045;BME280;31781;54.094;13.428;2023-08-06T14:17:25;100356.59;;;18.22;71.38
46045;BME280;31781;54.094;13.428;2023-08-06T14:20:15;100360.47;;;18.21;71.87
46045;BME280;31781;54.094;13.428;2023-08-06T14:22:22;100356.00;;;18.15;73.03
46045;BME280;31781;54.094;13.428;2023-08-06T14:24:23;100351.06;;;18.12;73.05
46045;BME280;31781;54.094;13.428;2023-08-06T14:26:29;100349.66;;;18.10;72.71
46045;BME280;31781;54.094;13.428;2023-08-06T14:28:33;100351.31;;;18.06;72.52
46045;BME280;31781;54.094;13.428;2023-08-06T14:30:49;100357.34;;;18.03;72.50
46045;BME280;31781;54.094;13.428;2023-08-06T14:32:54;100362.56;;;17.99;71.54
46045;BME280;31781;54.094;13.428;2023-08-06T14:34:58;100362.25;;;17.95;71.49
46045;BME280;31781;54.094;13.428;2023-08-06T14:37:00;100348.72;;;17.89;71.81
46045;BME280;31781;54.094;13.428;2023-08-06T14:39:02;100360.00;;;17.87;70.66
46045;BME280;31781;54.094;13.428;2023-08-06T14:41:04;100354.47;;;17.82;70.21
46045;BME280;31781;54.094;13.428;2023-08-06T14:43:08;100353.34;;;17.78;70.16
46045;BME280;31781;54.094;13.428;2023-08-06T14:45:13;100364.03;;;17.75;70.23
46045;BME280;31781;54.094;13.428;2023-08-06T14:47:21;100362.38;;;17.69;70.13
46045;BME280;31781;54.094;13.428;2023-08-06T14:49:23;100366.75;;;17.65;70.18
46045;BME280;31781;54.094;13.428;2023-08-06T14:51:40;100372.19;;;17.60;70.29
46045;BME280;31781;54.094;13.428;2023-08-06T14:53:55;100369.13;;;17.56;70.46
46045;BME280;31781;54.094;13.428;2023-08-06T14:56:15;100364.16;;;17.53;70.35
46045;BME280;31781;54.094;13.428;2023-08-06T14:58:36;100368.25;;;17.50;70.52
46045;BME280;31781;54.094;13.428;2023-08-06T15:00:52;100376.47;;;17.45;70.43
46045;BME280;31781;54.094;13.428;2023-08-06T15:02:59;100373.41;;;17.42;70.33
46045;BME280;31781;54.094;13.428;2023-08-06T15:05:01;100372.84;;;17.40;70.70
46045;BME280;31781;54.094;13.428;2023-08-06T15:07:03;100375.31;;;17.36;70.72
46045;BME280;31781;54.094;13.428;2023-08-06T15:09:07;100375.00;;;17.33;70.98
46045;BME280;31781;54.094;13.428;2023-08-06T15:11:10;100374.41;;;17.31;71.59
46045;BME280;31781;54.094;13.428;2023-08-06T15:13:11;100375.50;;;17.30;70.75
46045;BME280;31781;54.094;13.428;2023-08-06T15:15:35;100383.44;;;17.26;71.01
46045;BME280;31781;54.094;13.428;2023-08-06T15:17:42;100377.09;;;17.21;71.00
46045;BME280;31781;54.094;13.428;2023-08-06T15:19:44;100371.28;;;17.17;71.31
46045;BME280;31781;54.094;13.428;2023-08-06T15:21:48;100374.56;;;17.14;71.74
46045;BME280;31781;54.094;13.428;2023-08-06T15:23:51;100366.00;;;17.11;71.57
46045;BME280;31781;54.094;13.428;2023-08-06T15:25:54;100377.50;;;17.08;71.71
46045;BME280;31781;54.094;13.428;2023-08-06T15:28:05;100374.72;;;17.02;71.50
46045;BME280;31781;54.094;13.428;2023-08-06T15:30:19;100378.56;;;17.01;71.71
46045;BME280;31781;54.094;13.428;2023-08-06T15:32:22;100375.50;;;16.98;71.99
46045;BME280;31781;54.094;13.428;2023-08-06T15:34:34;100373.00;;;16.96;71.39
46045;BME280;31781;54.094;13.428;2023-08-06T15:36:49;100369.38;;;16.91;72.07
46045;BME280;31781;54.094;13.428;2023-08-06T15:39:12;100375.13;;;16.89;71.75
46045;BME280;31781;54.094;13.428;2023-08-06T15:41:16;100374.81;;;16.86;72.22
46045;BME280;31781;54.094;13.428;2023-08-06T15:43:32;100366.25;;;16.82;72.62
46045;BME280;31781;54.094;13.428;2023-08-06T15:46:06;100366.53;;;16.81;71.59
46045;BME280;31781;54.094;13.428;2023-08-06T15:48:22;100355.72;;;16.74;72.31
46045;BME280;31781;54.094;13.428;2023-08-06T15:50:37;100351.59;;;16.72;72.58
46045;BME280;31781;54.094;13.428;2023-08-06T15:52:56;100352.13;;;16.69;72.91
46045;BME280;31781;54.094;13.428;2023-08-06T15:55:19;100342.47;;;16.66;71.85
46045;BME280;31781;54.094;13.428;2023-08-06T15:57:36;100333.94;;;16.63;73.01
46045;BME280;31781;54.094;13.428;2023-08-06T15:59:39;100332.25;;;16.62;73.35
46045;BME280;31781;54.094;13.428;2023-08-06T16:01:58;100333.34;;;16.61;72.56
46045;BME280;31781;54.094;13.428;2023-08-06T16:04:28;100317.63;;;16.56;72.92
46045;BME280;31781;54.094;13.428;2023-08-06T16:06:53;100320.88;;;16.53;73.62
46045;BME280;31781;54.094;13.428;2023-08-06T16:09:16;100309.31;;;16.51;73.84
46045;BME280;31781;54.094;13.428;2023-08-06T16:11:32;100304.34;;;16.48;73.80
46045;BME280;31781;54.094;13.428;2023-08-06T16:13:48;100305.69;;;16.45;73.82
46045;BME280;31781;54.094;13.428;2023-08-06T16:16:04;100304.28;;;16.43;73.97
46045;BME280;31781;54.094;13.428;2023-08-06T16:18:08;100308.41;;;16.40;73.75